Angus, Minnesota
Current Conditions -  °F | °C
As of 12:54 PM on Friday 31 Oct 2014 (Local Time) from KCKN Reporting Station
Clear Clear  
Wind Chill: -3°   Ceiling: Unl
Heat Index:   Visibility: 10mi
Dew Point: -6°   Wind: 10mph
Humidity: 60%   Direction: 180°S
Pressure: 30.55"   Gusts: NA
Location:  48.08°N, 96.7°W
Report Text: KCKN 311754Z AUTO 18009KT 10SM CLR 01/M06 A3055 RMK AO2
Loading
Personal Weather Stations






























Interactive Weather Map
Tropical Storm Tracking
New forecast layout! Learn more

10-Day Weather Forecast

Advertisements
Track Severe Weather on mobile